createdAt,value
2023-02-14T00:01:58.724Z,49.85
2023-02-14T00:04:31.973Z,49.49
2023-02-14T00:07:01.872Z,49.71
2023-02-14T00:09:37.016Z,49.64
2023-02-14T00:12:08.122Z,49.75
2023-02-14T00:14:56.649Z,49.70
2023-02-14T00:17:24.083Z,49.50
2023-02-14T00:19:54.590Z,49.97
2023-02-14T00:22:26.693Z,50.12
2023-02-14T00:24:56.445Z,49.97
2023-02-14T00:27:26.799Z,50.06
2023-02-14T00:29:55.105Z,50.32
2023-02-14T00:32:25.325Z,50.52
2023-02-14T00:34:54.072Z,49.93
2023-02-14T00:37:27.185Z,49.80
2023-02-14T00:39:56.888Z,50.28
2023-02-14T00:42:27.134Z,50.26
2023-02-14T00:44:57.586Z,49.96
2023-02-14T00:47:42.430Z,50.01
2023-02-14T00:50:13.887Z,50.38
2023-02-14T00:52:41.784Z,49.64
2023-02-14T00:55:17.893Z,49.54
2023-02-14T00:57:51.689Z,49.60
2023-02-14T01:00:22.725Z,49.90
2023-02-14T01:02:56.822Z,49.83
2023-02-14T01:05:26.597Z,49.67
2023-02-14T01:07:54.160Z,50.29
2023-02-14T01:10:22.392Z,50.15
2023-02-14T01:12:55.658Z,50.35
2023-02-14T01:15:36.033Z,50.20
2023-02-14T01:18:04.090Z,49.84
2023-02-14T01:20:37.009Z,50.57
2023-02-14T01:23:12.459Z,50.55
2023-02-14T01:25:40.947Z,50.58
2023-02-14T01:28:19.150Z,50.48
2023-02-14T01:30:54.274Z,50.10
2023-02-14T01:33:32.662Z,50.41
2023-02-14T01:36:04.592Z,50.05
2023-02-14T01:38:33.226Z,50.25
2023-02-14T01:41:10.562Z,50.37
2023-02-14T01:44:12.243Z,51.23
2023-02-14T01:46:44.427Z,51.14
2023-02-14T01:49:19.222Z,51.10
2023-02-14T01:52:20.236Z,51.19
2023-02-14T01:55:24.604Z,51.03
2023-02-14T01:58:03.216Z,51.15
2023-02-14T02:00:50.105Z,50.80
2023-02-14T02:03:19.719Z,50.96
2023-02-14T02:05:58.673Z,51.32
2023-02-14T02:08:27.132Z,50.88
2023-02-14T02:10:59.202Z,51.14
2023-02-14T02:13:27.035Z,51.15
2023-02-14T02:16:33.960Z,51.18
2023-02-14T02:19:36.675Z,51.02
2023-02-14T02:22:10.129Z,50.53
2023-02-14T02:24:49.732Z,50.68
2023-02-14T02:27:56.848Z,51.45
2023-02-14T02:30:54.858Z,51.39
2023-02-14T02:33:47.841Z,51.34
2023-02-14T02:36:36.140Z,51.18
2023-02-14T02:39:09.973Z,51.23
2023-02-14T02:42:00.942Z,51.16
2023-02-14T02:45:01.763Z,51.46
2023-02-14T02:47:58.376Z,51.81
2023-02-14T02:50:50.345Z,51.16
2023-02-14T02:53:25.331Z,51.22
2023-02-14T02:56:28.369Z,51.60
2023-02-14T02:59:18.864Z,51.27
2023-02-14T03:02:09.938Z,51.48
2023-02-14T03:04:55.117Z,51.09
2023-02-14T03:07:40.249Z,51.55
2023-02-14T03:10:14.469Z,52.08
2023-02-14T03:13:09.936Z,51.69
2023-02-14T03:15:56.566Z,51.99
2023-02-14T03:18:49.772Z,51.68
2023-02-14T03:21:43.427Z,51.63
2023-02-14T03:24:31.592Z,51.77
2023-02-14T03:27:14.906Z,51.62
2023-02-14T03:29:58.076Z,51.95
2023-02-14T03:32:46.681Z,52.10
2023-02-14T03:35:17.413Z,51.64
2023-02-14T03:38:10.659Z,51.41
2023-02-14T03:41:13.634Z,51.99
2023-02-14T03:43:51.946Z,51.56
2023-02-14T03:46:54.579Z,52.01
2023-02-14T03:49:30.147Z,51.39
2023-02-14T03:52:01.496Z,51.67
2023-02-14T03:54:33.175Z,51.33
2023-02-14T03:57:14.163Z,51.69
2023-02-14T03:59:42.410Z,51.16
2023-02-14T04:02:12.532Z,51.62
2023-02-14T04:04:46.945Z,51.41
2023-02-14T04:07:18.941Z,51.42
2023-02-14T04:09:49.978Z,51.41
2023-02-14T04:12:32.302Z,51.09
2023-02-14T04:15:18.873Z,51.50
2023-02-14T04:18:04.235Z,51.60
2023-02-14T04:20:32.165Z,51.14
2023-02-14T04:22:59.964Z,51.67
2023-02-14T04:25:29.047Z,51.55
2023-02-14T04:27:56.353Z,51.31
2023-02-14T04:30:23.797Z,51.08
2023-02-14T04:32:51.881Z,51.24
2023-02-14T04:35:21.272Z,50.95
2023-02-14T04:37:51.158Z,51.27
2023-02-14T04:40:21.540Z,51.50
2023-02-14T04:42:52.042Z,51.18
2023-02-14T04:45:28.314Z,51.16
2023-02-14T04:47:55.669Z,51.33
2023-02-14T04:50:26.451Z,51.30
2023-02-14T04:52:54.094Z,51.10
2023-02-14T04:55:24.576Z,51.44
2023-02-14T04:57:55.103Z,51.20
2023-02-14T05:00:39.271Z,51.06
2023-02-14T05:03:23.924Z,51.26
2023-02-14T05:09:00.957Z,51.06
2023-02-14T05:11:33.621Z,51.18
2023-02-14T05:14:14.848Z,51.69
2023-02-14T05:16:44.122Z,51.12
2023-02-14T05:22:01.772Z,51.53
2023-02-14T05:24:37.719Z,51.36
2023-02-14T05:27:10.817Z,51.79
2023-02-14T05:29:43.558Z,51.29
2023-02-14T05:32:18.936Z,51.64
2023-02-14T05:35:00.756Z,51.76
2023-02-14T05:37:30.136Z,51.63
2023-02-14T05:40:04.977Z,51.33
2023-02-14T05:42:36.816Z,51.37
2023-02-14T05:45:15.357Z,51.45
2023-02-14T05:47:49.251Z,51.25
2023-02-14T05:50:29.383Z,51.09
2023-02-14T05:53:06.705Z,51.16
2023-02-14T05:55:38.980Z,51.42
2023-02-14T05:58:11.267Z,51.35
2023-02-14T06:01:04.860Z,51.63
2023-02-14T06:03:38.640Z,51.44
2023-02-14T06:06:29.724Z,51.31
2023-02-14T06:09:11.515Z,51.15
2023-02-14T06:11:42.961Z,52.03
2023-02-14T06:14:16.723Z,51.59
2023-02-14T06:16:52.047Z,51.90
2023-02-14T06:19:24.032Z,51.80
2023-02-14T06:22:00.131Z,51.92
2023-02-14T06:24:34.636Z,51.86
2023-02-14T06:29:50.283Z,51.43
2023-02-14T06:32:20.460Z,50.93
2023-02-14T06:34:55.941Z,51.03
2023-02-14T06:37:27.910Z,50.74
2023-02-14T06:39:58.430Z,50.80
2023-02-14T06:42:38.048Z,50.45
2023-02-14T06:48:02.934Z,50.86
2023-02-14T06:50:35.869Z,50.60
2023-02-14T06:53:05.946Z,50.52
2023-02-14T06:55:33.796Z,50.89
2023-02-14T06:58:06.372Z,51.40
2023-02-14T07:00:37.104Z,51.50
2023-02-14T07:03:06.664Z,51.23
2023-02-14T07:05:35.156Z,50.84
2023-02-14T07:08:10.680Z,50.52
2023-02-14T07:10:45.260Z,51.07
2023-02-14T07:13:14.101Z,50.48
2023-02-14T07:15:48.299Z,50.21
2023-02-14T07:18:24.951Z,50.29
2023-02-14T07:20:59.266Z,50.50
2023-02-14T07:23:33.266Z,50.34
2023-02-14T07:26:06.857Z,49.89
2023-02-14T07:28:45.148Z,49.81
2023-02-14T07:31:23.200Z,50.19
2023-02-14T07:33:57.609Z,50.04
2023-02-14T07:36:28.596Z,49.97
2023-02-14T07:39:04.190Z,49.43
2023-02-14T07:41:41.467Z,49.39
2023-02-14T07:44:19.025Z,49.75
2023-02-14T07:46:51.845Z,49.43
2023-02-14T07:49:23.200Z,49.19
2023-02-14T07:51:58.291Z,49.20
2023-02-14T07:54:26.613Z,48.89
2023-02-14T07:57:00.324Z,49.22
2023-02-14T07:59:34.030Z,49.12
2023-02-14T08:02:08.008Z,48.81
2023-02-14T08:04:40.100Z,48.50
2023-02-14T08:07:08.978Z,48.65
2023-02-14T08:09:37.281Z,48.43
2023-02-14T08:12:32.752Z,48.60
2023-02-14T08:15:21.058Z,48.42
2023-02-14T08:17:52.060Z,48.77
2023-02-14T08:20:28.507Z,48.55
2023-02-14T08:23:08.422Z,48.25
2023-02-14T08:25:40.292Z,48.23
2023-02-14T08:28:17.410Z,48.81
2023-02-14T08:30:52.643Z,48.39
2023-02-14T08:33:24.525Z,48.36
2023-02-14T08:36:00.179Z,48.39
2023-02-14T08:38:35.770Z,48.72
2023-02-14T08:41:11.079Z,48.41
2023-02-14T08:43:47.991Z,47.28
2023-02-14T08:46:44.957Z,46.68
2023-02-14T08:49:19.157Z,46.42
2023-02-14T08:51:50.598Z,45.12
2023-02-14T08:54:27.723Z,44.27
2023-02-14T08:57:16.065Z,43.74
2023-02-14T08:59:49.191Z,41.96
2023-02-14T09:02:27.289Z,41.67
2023-02-14T09:05:05.627Z,40.44
2023-02-14T09:07:38.769Z,41.44
2023-02-14T09:10:12.724Z,39.80
2023-02-14T09:13:17.799Z,38.83
2023-02-14T09:15:50.915Z,39.11
2023-02-14T09:18:27.758Z,39.36
2023-02-14T09:21:18.996Z,38.32
2023-02-14T09:23:49.640Z,38.34
2023-02-14T09:26:23.644Z,37.36
2023-02-14T09:28:55.816Z,37.65
2023-02-14T09:31:50.413Z,36.91
2023-02-14T09:34:34.348Z,36.18
2023-02-14T09:37:06.498Z,36.55
2023-02-14T09:39:38.975Z,35.57
2023-02-14T09:42:35.201Z,35.32
2023-02-14T09:45:30.369Z,34.80
2023-02-14T09:48:19.180Z,34.75
2023-02-14T09:51:06.951Z,34.92
2023-02-14T09:53:47.652Z,33.82
2023-02-14T09:56:57.740Z,33.38
2023-02-14T09:59:29.982Z,33.96
2023-02-14T10:02:43.406Z,33.03
2023-02-14T10:05:23.399Z,32.91
2023-02-14T10:08:08.560Z,32.82
2023-02-14T10:10:48.420Z,31.96
2023-02-14T10:13:39.149Z,32.00
2023-02-14T10:16:37.977Z,31.14
2023-02-14T10:19:20.226Z,30.91
2023-02-14T10:22:20.907Z,31.17
2023-02-14T10:25:24.564Z,30.78
2023-02-14T10:27:59.404Z,31.18
2023-02-14T10:30:30.523Z,30.97
2023-02-14T10:36:38.434Z,29.77
2023-02-14T10:39:32.048Z,29.60
2023-02-14T10:42:38.556Z,29.92
2023-02-14T10:45:29.576Z,29.55
2023-02-14T10:51:54.333Z,28.91
2023-02-14T10:54:43.461Z,29.11
2023-02-14T10:57:39.900Z,29.10
2023-02-14T11:00:23.004Z,29.15
2023-02-14T11:03:06.327Z,28.91
2023-02-14T11:05:52.591Z,29.86
2023-02-14T11:08:28.196Z,29.91
2023-02-14T11:11:13.526Z,30.13
2023-02-14T11:13:50.115Z,29.41
2023-02-14T11:16:46.599Z,29.95
2023-02-14T11:19:37.817Z,30.91
2023-02-14T11:22:16.336Z,31.70
2023-02-14T11:24:59.327Z,30.75
2023-02-14T11:27:38.051Z,31.61
2023-02-14T11:30:28.540Z,31.99
2023-02-14T11:32:59.544Z,30.23
2023-02-14T11:35:35.965Z,31.44
2023-02-14T11:38:23.477Z,30.62
2023-02-14T11:41:02.005Z,30.79
2023-02-14T11:43:37.135Z,30.61
2023-02-14T11:46:17.628Z,30.19
2023-02-14T11:49:06.292Z,31.55
2023-02-14T11:51:59.702Z,30.80
2023-02-14T11:54:50.667Z,31.42
2023-02-14T12:00:33.398Z,31.11
2023-02-14T12:03:27.096Z,32.96
2023-02-14T12:06:00.880Z,30.93
2023-02-14T12:08:40.064Z,31.53
2023-02-14T12:11:26.256Z,32.20
2023-02-14T12:14:20.657Z,31.91
2023-02-14T12:17:31.937Z,31.92
2023-02-14T12:20:55.052Z,32.14
2023-02-14T12:23:49.962Z,32.19
2023-02-14T12:26:59.499Z,31.20
2023-02-14T12:29:35.190Z,30.46
2023-02-14T12:32:48.427Z,32.54
2023-02-14T12:35:23.731Z,32.55
2023-02-14T12:38:09.862Z,32.03
2023-02-14T12:41:17.100Z,30.04
2023-02-14T12:43:58.038Z,29.85
2023-02-14T12:46:35.600Z,29.11
2023-02-14T12:49:09.187Z,29.51
2023-02-14T12:51:57.415Z,30.61
2023-02-14T12:54:46.381Z,31.12
2023-02-14T12:57:38.380Z,30.86
2023-02-14T13:00:42.276Z,30.59
2023-02-14T13:03:44.796Z,30.81
2023-02-14T13:06:39.908Z,32.70
2023-02-14T13:09:45.249Z,31.78
2023-02-14T13:12:55.603Z,31.66
2023-02-14T13:16:05.273Z,32.13
2023-02-14T13:19:09.477Z,33.43
2023-02-14T13:21:43.530Z,32.80
2023-02-14T13:24:25.518Z,32.96
2023-02-14T13:27:09.303Z,33.69
2023-02-14T13:33:09.466Z,33.46
2023-02-14T13:38:20.133Z,33.73
2023-02-14T13:40:55.752Z,32.68
2023-02-14T13:43:57.002Z,32.96
2023-02-14T13:46:39.767Z,34.56
2023-02-14T13:49:37.579Z,32.85
2023-02-14T13:52:11.573Z,31.28
2023-02-14T13:54:48.263Z,30.76
2023-02-14T13:57:54.312Z,31.49
2023-02-14T14:00:45.138Z,30.08
2023-02-14T14:03:38.979Z,29.67
2023-02-14T14:06:16.039Z,29.79
2023-02-14T14:08:52.493Z,29.42
2023-02-14T14:11:52.915Z,30.12
2023-02-14T14:14:36.772Z,30.89
2023-02-14T14:20:20.612Z,34.26
2023-02-14T14:26:40.067Z,31.39
2023-02-14T14:32:44.008Z,33.16
2023-02-14T14:35:20.942Z,33.12
2023-02-14T14:38:16.281Z,33.92
2023-02-14T14:40:56.762Z,32.18
2023-02-14T14:43:30.656Z,33.45
2023-02-14T14:48:57.900Z,32.77
2023-02-14T14:51:52.731Z,33.36
2023-02-14T14:54:28.502Z,35.23
2023-02-14T14:57:07.825Z,35.04
2023-02-14T14:59:42.446Z,35.42
2023-02-14T15:02:40.957Z,34.98
2023-02-14T15:05:28.772Z,35.83
2023-02-14T15:08:24.084Z,35.92
2023-02-14T15:11:24.191Z,37.90
2023-02-14T15:13:58.747Z,36.68
2023-02-14T15:16:49.588Z,37.14
2023-02-14T15:20:00.366Z,39.03
2023-02-14T15:22:47.307Z,41.05
2023-02-14T15:25:26.006Z,41.43
2023-02-14T15:27:58.268Z,39.38
2023-02-14T15:30:34.748Z,40.58
2023-02-14T15:33:19.330Z,41.31
2023-02-14T15:36:05.724Z,40.24
2023-02-14T15:38:46.232Z,39.32
2023-02-14T15:41:30.792Z,39.90
2023-02-14T15:44:01.639Z,39.52
2023-02-14T15:46:54.032Z,40.38
2023-02-14T15:49:24.771Z,39.23
2023-02-14T15:51:52.747Z,40.42
2023-02-14T15:54:33.681Z,41.74
2023-02-14T15:57:13.868Z,40.79
2023-02-14T15:59:47.724Z,40.54
2023-02-14T16:02:41.670Z,41.84
2023-02-14T16:05:22.398Z,40.73
2023-02-14T16:08:34.661Z,43.08
2023-02-14T16:11:28.879Z,40.92
2023-02-14T16:14:42.283Z,41.63
2023-02-14T16:17:19.821Z,42.06
2023-02-14T16:19:48.749Z,43.24
2023-02-14T16:25:30.546Z,43.63
2023-02-14T16:28:01.880Z,43.95
2023-02-14T16:30:34.651Z,44.45
2023-02-14T16:33:29.958Z,44.90
2023-02-14T16:36:27.471Z,44.25
2023-02-14T16:39:13.487Z,44.65
2023-02-14T16:41:49.976Z,44.59
2023-02-14T16:44:23.392Z,44.94
2023-02-14T16:46:57.127Z,45.49
2023-02-14T16:49:25.584Z,46.17
2023-02-14T16:51:55.925Z,44.83
2023-02-14T16:54:26.583Z,44.23
2023-02-14T16:57:05.466Z,44.81
2023-02-14T17:00:10.265Z,44.21
2023-02-14T17:02:55.293Z,44.57
2023-02-14T17:05:42.144Z,44.92
2023-02-14T17:08:21.407Z,44.85
2023-02-14T17:10:57.939Z,45.80
2023-02-14T17:13:36.235Z,44.01
2023-02-14T17:19:27.224Z,44.83
2023-02-14T17:22:09.725Z,43.93
2023-02-14T17:24:43.610Z,43.27
2023-02-14T17:27:14.449Z,44.00
2023-02-14T17:29:45.667Z,44.11
2023-02-14T17:35:10.465Z,45.71
2023-02-14T17:37:55.297Z,45.67
2023-02-14T17:40:40.042Z,45.11
2023-02-14T17:43:15.852Z,46.53
2023-02-14T17:45:50.056Z,45.97
2023-02-14T17:48:33.331Z,46.38
2023-02-14T17:51:08.972Z,45.39
2023-02-14T17:53:39.681Z,44.47
2023-02-14T17:56:18.756Z,45.56
2023-02-14T17:58:56.331Z,46.20
2023-02-14T18:01:38.123Z,45.50
2023-02-14T18:04:25.931Z,47.07
2023-02-14T18:07:11.215Z,45.40
2023-02-14T18:09:39.327Z,45.70
2023-02-14T18:12:13.580Z,46.68
2023-02-14T18:14:58.569Z,46.93
2023-02-14T18:17:40.925Z,46.25
2023-02-14T18:20:24.124Z,46.02
2023-02-14T18:25:38.757Z,46.11
2023-02-14T18:28:12.074Z,46.80
2023-02-14T18:30:51.443Z,45.66
2023-02-14T18:33:26.088Z,45.35
2023-02-14T18:36:10.986Z,46.77
2023-02-14T18:39:02.810Z,47.01
2023-02-14T18:41:40.494Z,46.43
2023-02-14T18:44:33.397Z,46.89
2023-02-14T18:47:10.013Z,47.00
2023-02-14T18:49:41.155Z,47.13
2023-02-14T18:52:09.950Z,46.37
2023-02-14T18:54:38.096Z,47.05
2023-02-14T18:57:13.092Z,47.89
2023-02-14T18:59:47.386Z,47.76
2023-02-14T19:02:32.377Z,48.13
2023-02-14T19:05:01.154Z,47.66
2023-02-14T19:07:29.027Z,48.40
2023-02-14T19:10:05.507Z,48.71
2023-02-14T19:12:45.811Z,49.24
2023-02-14T19:15:13.727Z,47.79
2023-02-14T19:20:27.227Z,47.00
2023-02-14T19:23:24.020Z,47.39
2023-02-14T19:26:06.650Z,47.13
2023-02-14T19:28:44.250Z,47.12
2023-02-14T19:31:48.110Z,48.16
2023-02-14T19:34:30.774Z,49.10
2023-02-14T19:37:05.471Z,49.42
2023-02-14T19:39:34.484Z,47.77
2023-02-14T19:42:08.431Z,48.80
2023-02-14T19:44:43.991Z,48.00
2023-02-14T19:47:33.572Z,48.26
2023-02-14T19:50:10.686Z,47.94
2023-02-14T19:52:43.154Z,48.53
2023-02-14T19:55:35.294Z,47.25
2023-02-14T19:58:03.486Z,46.53
2023-02-14T20:00:31.511Z,46.10
2023-02-14T20:03:10.483Z,47.02
2023-02-14T20:05:46.320Z,46.28
2023-02-14T20:08:20.239Z,46.25
2023-02-14T20:10:48.708Z,46.54
2023-02-14T20:13:16.586Z,45.79
2023-02-14T20:15:55.318Z,45.98
2023-02-14T20:18:25.119Z,45.78
2023-02-14T20:21:06.566Z,45.54
2023-02-14T20:23:40.047Z,45.24
2023-02-14T20:26:13.339Z,45.28
2023-02-14T20:28:44.065Z,45.22
2023-02-14T20:31:19.592Z,45.05
2023-02-14T20:33:57.143Z,45.14
2023-02-14T20:36:35.563Z,45.44
2023-02-14T20:39:10.062Z,45.22
2023-02-14T20:41:44.135Z,45.33
2023-02-14T20:44:19.719Z,45.35
2023-02-14T20:46:56.450Z,45.46
2023-02-14T20:49:31.834Z,45.96
2023-02-14T20:52:00.006Z,45.45
2023-02-14T20:54:30.904Z,45.46
2023-02-14T20:56:58.897Z,45.63
2023-02-14T20:59:30.077Z,45.46
2023-02-14T21:02:00.984Z,45.39
2023-02-14T21:04:31.864Z,45.75
2023-02-14T21:07:05.830Z,45.73
2023-02-14T21:09:34.929Z,45.72
2023-02-14T21:12:03.570Z,45.66
2023-02-14T21:14:34.232Z,46.07
2023-02-14T21:17:02.385Z,46.03
2023-02-14T21:19:35.196Z,46.05
2023-02-14T21:22:06.540Z,45.91
2023-02-14T21:24:39.643Z,46.01
2023-02-14T21:27:21.426Z,46.08
2023-02-14T21:29:51.882Z,46.44
2023-02-14T21:32:22.064Z,46.49
2023-02-14T21:35:01.498Z,46.18
2023-02-14T21:37:34.061Z,46.55
2023-02-14T21:40:11.866Z,46.41
2023-02-14T21:43:17.847Z,46.85
2023-02-14T21:45:55.523Z,46.59
2023-02-14T21:48:42.934Z,46.74
2023-02-14T21:51:13.411Z,46.67
2023-02-14T21:53:47.059Z,46.58
2023-02-14T21:56:20.401Z,46.60
2023-02-14T21:59:02.547Z,46.55
2023-02-14T22:01:35.940Z,46.47
2023-02-14T22:04:08.341Z,46.55
2023-02-14T22:06:37.777Z,46.35
2023-02-14T22:09:11.092Z,46.58
2023-02-14T22:11:41.899Z,47.02
2023-02-14T22:14:18.165Z,46.32
2023-02-14T22:16:46.174Z,46.84
2023-02-14T22:19:17.637Z,46.58
2023-02-14T22:21:46.200Z,46.74
2023-02-14T22:24:17.002Z,46.71
2023-02-14T22:26:50.291Z,46.75
2023-02-14T22:29:21.497Z,46.70
2023-02-14T22:31:52.319Z,46.63
2023-02-14T22:34:22.696Z,46.73
2023-02-14T22:36:56.190Z,47.15
2023-02-14T22:39:26.203Z,46.68
2023-02-14T22:42:03.647Z,46.82
2023-02-14T22:44:34.406Z,47.02
2023-02-14T22:47:12.206Z,47.02
2023-02-14T22:49:40.077Z,46.52
2023-02-14T22:52:10.225Z,46.56
2023-02-14T22:54:37.883Z,46.73
2023-02-14T22:57:05.409Z,46.55
2023-02-14T22:59:37.569Z,46.72
2023-02-14T23:02:08.394Z,46.85
2023-02-14T23:04:36.469Z,46.88
2023-02-14T23:07:07.610Z,46.91
2023-02-14T23:09:39.791Z,47.25
2023-02-14T23:12:35.495Z,47.25
2023-02-14T23:15:37.821Z,47.16
2023-02-14T23:18:29.512Z,47.14
2023-02-14T23:21:32.680Z,47.30
2023-02-14T23:24:03.594Z,47.28
2023-02-14T23:26:40.633Z,47.36
2023-02-14T23:29:19.691Z,47.24
2023-02-14T23:31:49.113Z,47.52
2023-02-14T23:34:19.426Z,47.47
2023-02-14T23:37:01.737Z,48.00
2023-02-14T23:39:40.088Z,47.61
2023-02-14T23:42:15.338Z,47.73
2023-02-14T23:44:44.789Z,47.81
2023-02-14T23:47:13.661Z,47.76
2023-02-14T23:49:42.788Z,47.74
2023-02-14T23:52:12.237Z,47.81
2023-02-14T23:54:42.571Z,47.68
2023-02-14T23:57:10.955Z,47.98
2023-02-14T23:59:40.450Z,47.81
